Time;durP1;ratioP1;P1;durP2;ratioP2;P2;SDS_P1;SDS_P2;PMS_P1;PMS_P2;Temp;Humidity;BMP_temperature;BMP_pressure;BME280_temperature;BME280_humidity;BME280_pressure;Samples;Min_cycle;Max_cycle;Signal;HPM_P1;HPM_P2
2021/09/26 00:01:44;;;;;;;8.13;4.38;;;;;;;;;;5050458;28;20057;-70
2021/09/26 00:04:09;;;;;;;8.18;4.25;;;;;;;;;;5049512;28;20034;-71
2021/09/26 00:06:34;;;;;;;14.30;5.00;;;;;;;;;;5048119;28;20032;-70
2021/09/26 00:08:59;;;;;;;9.80;4.60;;;;;;;;;;5049829;28;20025;-71
2021/09/26 00:11:24;;;;;;;6.05;3.83;;;;;;;;;;5049965;28;20631;-70
2021/09/26 00:13:50;;;;;;;6.27;3.67;;;;;;;;;;5050150;28;20025;-70
2021/09/26 00:16:15;;;;;;;8.13;5.35;;;;;;;;;;5049147;28;20255;-71
2021/09/26 00:18:40;;;;;;;7.55;4.15;;;;;;;;;;5050253;28;20025;-71
2021/09/26 00:21:06;;;;;;;6.90;4.57;;;;;;;;;;5050256;28;20515;-70
2021/09/26 00:23:32;;;;;;;7.95;4.53;;;;;;;;;;5049038;28;20401;-70
2021/09/26 00:25:58;;;;;;;11.40;4.50;;;;;;;;;;5049836;28;20021;-70
2021/09/26 00:28:23;;;;;;;7.03;4.40;;;;;;;;;;5049924;28;20457;-70
2021/09/26 00:30:49;;;;;;;7.38;4.43;;;;;;;;;;5050419;28;20024;-71
2021/09/26 00:33:15;;;;;;;8.57;4.53;;;;;;;;;;5063977;28;20366;-70
2021/09/26 00:35:40;;;;;;;10.82;4.40;;;;;;;;;;5049636;28;20021;-70
2021/09/26 00:38:05;;;;;;;6.80;4.57;;;;;;;;;;5049770;28;20028;-70
2021/09/26 00:40:31;;;;;;;8.75;4.50;;;;;;;;;;5050052;28;20033;-71
2021/09/26 00:42:56;;;;;;;11.45;4.75;;;;;;;;;;5049238;28;20071;-70
2021/09/26 00:45:21;;;;;;;7.35;4.35;;;;;;;;;;5049230;28;20028;-70
2021/09/26 00:47:47;;;;;;;8.93;4.45;;;;;;;;;;5049294;28;20146;-70
2021/09/26 00:50:12;;;;;;;6.72;4.30;;;;;;;;;;5049384;28;20481;-70
2021/09/26 00:52:38;;;;;;;7.50;4.70;;;;;;;;;;5052375;28;20021;-70
2021/09/26 00:55:04;;;;;;;7.75;4.60;;;;;;;;;;5053380;28;20021;-70
2021/09/26 00:57:29;;;;;;;7.28;4.30;;;;;;;;;;5053540;28;20027;-70
2021/09/26 00:59:58;;;;;;;7.67;4.50;;;;;;;;;;5052981;28;20534;-70
2021/09/26 01:02:23;;;;;;;6.63;4.53;;;;;;;;;;5052747;28;20354;-70
2021/09/26 01:04:48;;;;;;;9.35;4.65;;;;;;;;;;5052961;28;20090;-71
2021/09/26 01:07:16;;;;;;;10.27;4.73;;;;;;;;;;5052565;28;20201;-70
2021/09/26 01:09:44;;;;;;;8.10;5.75;;;;;;;;;;5053095;28;20295;-70
2021/09/26 01:12:09;;;;;;;8.45;4.78;;;;;;;;;;5051786;28;20029;-70
2021/09/26 01:14:40;;;;;;;6.47;4.03;;;;;;;;;;5053044;28;20092;-70
2021/09/26 01:17:09;;;;;;;6.90;4.55;;;;;;;;;;5046440;28;20317;-70
2021/09/26 01:19:35;;;;;;;6.22;4.25;;;;;;;;;;5052972;28;20518;-71
2021/09/26 01:22:06;;;;;;;8.45;4.75;;;;;;;;;;5034582;28;20111;-70
2021/09/26 01:24:50;;;;;;;6.40;4.50;;;;;;;;;;5050242;28;20112;-70
2021/09/26 01:27:24;;;;;;;12.93;5.18;;;;;;;;;;5052536;28;20024;-70
2021/09/26 01:29:49;;;;;;;9.35;4.57;;;;;;;;;;5052775;28;20021;-70
2021/09/26 01:32:16;;;;;;;7.32;4.82;;;;;;;;;;5052115;28;20025;-70
2021/09/26 01:34:44;;;;;;;11.48;4.97;;;;;;;;;;5052507;28;20043;-70
2021/09/26 01:37:13;;;;;;;15.02;4.75;;;;;;;;;;5052426;28;20028;-70
2021/09/26 01:39:48;;;;;;;8.85;4.78;;;;;;;;;;5051914;28;20233;-70
2021/09/26 01:42:16;;;;;;;9.02;4.50;;;;;;;;;;5048731;28;20025;-70
2021/09/26 01:45:16;;;;;;;7.85;4.85;;;;;;;;;;5052281;28;20029;-70
2021/09/26 01:47:41;;;;;;;;;;;;;;;;;;4990855;28;20062;-70
2021/09/26 01:50:09;;;;;;;7.85;4.53;;;;;;;;;;5038038;28;19915;-70
2021/09/26 01:52:36;;;;;;;9.25;4.95;;;;;;;;;;5051754;28;20370;-70
2021/09/26 01:55:03;;;;;;;8.70;5.03;;;;;;;;;;5051704;28;20032;-71
2021/09/26 01:57:29;;;;;;;7.80;4.88;;;;;;;;;;5052562;28;20029;-70
2021/09/26 01:59:56;;;;;;;6.72;4.53;;;;;;;;;;5051496;28;20029;-70
2021/09/26 02:02:23;;;;;;;9.15;4.25;;;;;;;;;;5045377;28;20120;-70
2021/09/26 02:04:52;;;;;;;11.63;5.18;;;;;;;;;;5052726;28;20020;-70
2021/09/26 02:07:18;;;;;;;9.90;5.38;;;;;;;;;;5051599;28;20448;-70
2021/09/26 02:09:44;;;;;;;10.25;4.30;;;;;;;;;;5051962;28;20064;-70
2021/09/26 02:12:10;;;;;;;6.65;4.38;;;;;;;;;;5050683;28;20103;-71
2021/09/26 02:14:35;;;;;;;6.38;4.53;;;;;;;;;;5033967;28;20107;-70
2021/09/26 02:17:01;;;;;;;8.38;4.95;;;;;;;;;;5051653;28;20071;-70
2021/09/26 02:19:26;;;;;;;8.13;4.45;;;;;;;;;;5033778;28;20021;-70
2021/09/26 02:21:51;;;;;;;7.38;3.72;;;;;;;;;;5051536;28;20047;-70
2021/09/26 02:24:16;;;;;;;9.75;5.03;;;;;;;;;;5050942;28;20035;-70
2021/09/26 02:26:42;;;;;;;6.63;4.65;;;;;;;;;;5051623;28;20036;-70
2021/09/26 02:29:07;;;;;;;7.35;4.63;;;;;;;;;;5050994;28;20370;-70
2021/09/26 02:31:32;;;;;;;7.23;4.73;;;;;;;;;;5051475;28;20268;-70
2021/09/26 02:33:57;;;;;;;9.30;5.13;;;;;;;;;;5051127;28;20251;-70
2021/09/26 02:36:22;;;;;;;9.87;4.37;;;;;;;;;;5051119;28;20021;-70
2021/09/26 02:38:48;;;;;;;9.63;4.38;;;;;;;;;;5051178;28;20256;-70
2021/09/26 02:41:26;;;;;;;10.20;4.90;;;;;;;;;;5050384;28;20031;-70
2021/09/26 02:44:10;;;;;;;9.93;4.65;;;;;;;;;;5050681;28;20048;-70
2021/09/26 02:46:37;;;;;;;13.90;4.72;;;;;;;;;;5048159;28;20028;-71
2021/09/26 02:49:03;;;;;;;7.15;4.55;;;;;;;;;;5051305;28;20362;-71
2021/09/26 02:51:28;;;;;;;7.88;4.60;;;;;;;;;;5051463;28;20021;-71
2021/09/26 02:53:53;;;;;;;8.90;5.32;;;;;;;;;;5050853;28;20029;-71
2021/09/26 02:56:19;;;;;;;9.13;4.97;;;;;;;;;;5050750;28;20099;-71
2021/09/26 02:58:44;;;;;;;6.63;4.70;;;;;;;;;;5050765;28;20029;-72
2021/09/26 03:01:09;;;;;;;9.35;4.93;;;;;;;;;;5050783;28;20381;-71
2021/09/26 03:03:34;;;;;;;10.70;5.20;;;;;;;;;;5051017;28;20051;-71
2021/09/26 03:06:00;;;;;;;9.43;4.57;;;;;;;;;;5050488;28;20421;-71
2021/09/26 03:08:25;;;;;;;8.57;4.85;;;;;;;;;;5051006;28;20029;-71
2021/09/26 03:10:56;;;;;;;9.88;4.80;;;;;;;;;;5050000;28;20470;-71
2021/09/26 03:13:21;;;;;;;7.85;5.10;;;;;;;;;;5050257;28;20017;-71
2021/09/26 03:15:47;;;;;;;9.88;5.00;;;;;;;;;;5050458;28;20021;-71
2021/09/26 03:18:12;;;;;;;6.50;5.13;;;;;;;;;;5049960;28;20111;-71
2021/09/26 03:20:37;;;;;;;10.40;5.20;;;;;;;;;;5050536;28;20036;-71
2021/09/26 03:23:02;;;;;;;8.95;5.63;;;;;;;;;;5049763;28;20104;-71
2021/09/26 03:25:28;;;;;;;7.85;4.95;;;;;;;;;;5050573;28;20432;-71
2021/09/26 03:27:53;;;;;;;8.80;4.87;;;;;;;;;;5050519;28;20029;-71
2021/09/26 03:30:18;;;;;;;9.32;5.18;;;;;;;;;;5050400;28;20259;-71
2021/09/26 03:32:44;;;;;;;10.15;4.80;;;;;;;;;;5050486;28;20524;-71
2021/09/26 03:35:10;;;;;;;8.10;4.85;;;;;;;;;;5049725;28;20009;-71
2021/09/26 03:37:35;;;;;;;8.27;4.68;;;;;;;;;;5050169;28;20050;-71
2021/09/26 03:40:00;;;;;;;8.70;5.22;;;;;;;;;;5050063;28;20115;-71
2021/09/26 03:42:26;;;;;;;6.63;4.90;;;;;;;;;;5050157;28;20045;-71
2021/09/26 03:44:51;;;;;;;8.85;5.43;;;;;;;;;;5050000;28;20385;-71
2021/09/26 03:47:16;;;;;;;9.47;4.93;;;;;;;;;;5049710;28;20098;-71
2021/09/26 03:49:41;;;;;;;11.40;5.97;;;;;;;;;;5050182;28;20291;-71
2021/09/26 03:52:07;;;;;;;15.95;5.63;;;;;;;;;;5048696;28;20313;-71
2021/09/26 03:54:32;;;;;;;12.40;5.28;;;;;;;;;;5049341;28;20009;-71
2021/09/26 03:56:57;;;;;;;14.10;5.73;;;;;;;;;;5031472;28;20481;-71
2021/09/26 03:59:22;;;;;;;8.23;5.37;;;;;;;;;;5049860;28;20278;-71
2021/09/26 04:01:47;;;;;;;9.00;5.43;;;;;;;;;;5049972;28;20563;-71
2021/09/26 04:04:13;;;;;;;11.73;5.30;;;;;;;;;;5049557;28;20287;-71
2021/09/26 04:06:38;;;;;;;10.13;5.63;;;;;;;;;;5049571;28;20031;-71
2021/09/26 04:09:04;;;;;;;8.13;5.23;;;;;;;;;;5049819;28;20035;-72
2021/09/26 04:11:29;;;;;;;12.82;6.60;;;;;;;;;;5049960;28;20801;-71
2021/09/26 04:13:55;;;;;;;14.85;5.35;;;;;;;;;;5050098;28;20531;-72
2021/09/26 04:16:20;;;;;;;12.10;5.85;;;;;;;;;;5049716;28;20457;-71
2021/09/26 04:18:45;;;;;;;17.33;5.40;;;;;;;;;;5050015;28;20078;-72
2021/09/26 04:21:10;;;;;;;9.63;5.90;;;;;;;;;;5049884;28;20159;-71
2021/09/26 04:23:36;;;;;;;8.93;5.63;;;;;;;;;;5049230;28;20271;-71
2021/09/26 04:26:01;;;;;;;12.00;6.32;;;;;;;;;;5050422;28;20314;-72
2021/09/26 04:28:26;;;;;;;11.77;5.25;;;;;;;;;;5052127;28;20028;-71
2021/09/26 04:30:51;;;;;;;11.23;5.95;;;;;;;;;;5054030;28;20036;-72
2021/09/26 04:33:17;;;;;;;13.57;6.30;;;;;;;;;;5053542;28;20104;-71
2021/09/26 04:35:42;;;;;;;9.13;6.00;;;;;;;;;;5053751;28;20263;-71
2021/09/26 04:38:07;;;;;;;9.17;6.20;;;;;;;;;;5053051;28;20275;-71
2021/09/26 04:40:32;;;;;;;9.27;5.90;;;;;;;;;;5053471;28;20286;-71
2021/09/26 04:42:58;;;;;;;8.45;5.78;;;;;;;;;;5053178;28;20083;-71
2021/09/26 04:45:23;;;;;;;10.18;6.18;;;;;;;;;;5053343;28;20041;-72
2021/09/26 04:47:48;;;;;;;11.50;6.13;;;;;;;;;;5053559;28;20021;-72
2021/09/26 04:50:14;;;;;;;9.50;6.15;;;;;;;;;;5052930;28;20676;-72
2021/09/26 04:52:39;;;;;;;9.73;6.10;;;;;;;;;;5053378;28;20025;-71
2021/09/26 04:55:05;;;;;;;10.43;6.70;;;;;;;;;;5053112;28;20436;-72
2021/09/26 04:57:30;;;;;;;14.20;6.10;;;;;;;;;;5035290;28;20264;-72
2021/09/26 04:59:55;;;;;;;9.00;6.15;;;;;;;;;;5053366;28;20053;-71
2021/09/26 05:02:21;;;;;;;9.88;6.65;;;;;;;;;;5052990;28;20033;-71
2021/09/26 05:04:46;;;;;;;14.15;6.40;;;;;;;;;;5053286;28;20087;-72
2021/09/26 05:07:11;;;;;;;17.08;7.07;;;;;;;;;;5034952;28;20739;-71
2021/09/26 05:09:36;;;;;;;12.77;6.50;;;;;;;;;;5053747;28;20473;-72
2021/09/26 05:12:01;;;;;;;14.45;7.40;;;;;;;;;;5051987;28;20088;-71
2021/09/26 05:14:27;;;;;;;12.02;6.85;;;;;;;;;;5052768;28;20017;-71
2021/09/26 05:16:52;;;;;;;20.93;7.00;;;;;;;;;;5053371;28;20009;-71
2021/09/26 05:19:17;;;;;;;16.80;6.75;;;;;;;;;;5052933;28;20658;-71
2021/09/26 05:21:42;;;;;;;13.43;6.93;;;;;;;;;;5052744;28;20036;-72
2021/09/26 05:24:08;;;;;;;14.02;7.15;;;;;;;;;;5051556;28;20274;-71
2021/09/26 05:26:33;;;;;;;13.50;6.73;;;;;;;;;;5052468;28;20182;-71
2021/09/26 05:28:58;;;;;;;17.40;7.47;;;;;;;;;;5052357;28;20767;-71
2021/09/26 05:31:23;;;;;;;10.95;6.97;;;;;;;;;;5052768;28;20013;-72
2021/09/26 05:33:49;;;;;;;11.18;7.60;;;;;;;;;;5052562;28;20426;-71
2021/09/26 05:36:14;;;;;;;14.30;6.93;;;;;;;;;;5052353;28;20118;-71
2021/09/26 05:38:39;;;;;;;14.93;6.73;;;;;;;;;;5052364;28;20482;-72
2021/09/26 05:41:04;;;;;;;15.27;6.20;;;;;;;;;;5052529;28;20270;-71
2021/09/26 05:43:30;;;;;;;11.00;7.47;;;;;;;;;;5085019;22;20102;-64
2021/09/26 05:45:55;;;;;;;11.53;6.50;;;;;;;;;;5064006;28;20074;-64
2021/09/26 05:48:20;;;;;;;10.85;6.43;;;;;;;;;;5072067;28;20271;-63
2021/09/26 05:50:45;;;;;;;9.03;6.23;;;;;;;;;;5072431;28;20039;-64
2021/09/26 05:53:11;;;;;;;10.67;7.03;;;;;;;;;;5065032;28;20267;-65
2021/09/26 05:55:36;;;;;;;8.80;6.03;;;;;;;;;;5064178;28;20642;-64
2021/09/26 05:58:01;;;;;;;9.95;6.80;;;;;;;;;;5071848;28;20028;-64
2021/09/26 06:00:27;;;;;;;10.98;5.80;;;;;;;;;;5071810;28;20039;-63
2021/09/26 06:02:52;;;;;;;10.60;6.30;;;;;;;;;;5071619;28;20031;-65
2021/09/26 06:05:18;;;;;;;13.80;6.82;;;;;;;;;;5071945;28;20207;-64
2021/09/26 06:07:43;;;;;;;14.77;6.35;;;;;;;;;;5060082;28;20032;-65
2021/09/26 06:10:09;;;;;;;10.48;4.03;;;;;;;;;;5057054;28;20017;-64
2021/09/26 06:12:34;;;;;;;10.25;5.50;;;;;;;;;;5058166;28;20051;-65
2021/09/26 06:14:59;;;;;;;15.07;6.88;;;;;;;;;;5071790;28;20015;-65
2021/09/26 06:17:25;;;;;;;11.05;5.93;;;;;;;;;;5071650;28;20503;-65
2021/09/26 06:19:52;;;;;;;8.70;5.28;;;;;;;;;;5071623;28;20446;-63
2021/09/26 06:22:17;;;;;;;11.82;5.97;;;;;;;;;;5071478;28;20491;-63
2021/09/26 06:24:45;;;;;;;9.40;4.43;;;;;;;;;;5071327;28;20040;-63
2021/09/26 06:27:10;;;;;;;14.60;6.50;;;;;;;;;;5071617;28;20032;-64
2021/09/26 06:29:35;;;;;;;10.40;5.63;;;;;;;;;;5071215;28;20017;-63
2021/09/26 06:32:01;;;;;;;9.93;5.27;;;;;;;;;;5071525;28;20028;-64
2021/09/26 06:34:26;;;;;;;10.97;6.33;;;;;;;;;;5071337;28;20291;-64
2021/09/26 06:36:51;;;;;;;12.83;5.80;;;;;;;;;;5071380;28;20277;-63
2021/09/26 06:39:16;;;;;;;13.37;6.40;;;;;;;;;;5071349;28;20263;-64
2021/09/26 06:41:41;;;;;;;20.90;5.30;;;;;;;;;;5071454;28;20291;-64
2021/09/26 06:44:07;;;;;;;11.00;6.45;;;;;;;;;;5070500;28;20111;-64
2021/09/26 06:46:32;;;;;;;10.57;5.85;;;;;;;;;;5070930;28;20103;-64
2021/09/26 06:48:57;;;;;;;11.00;6.55;;;;;;;;;;5070054;28;20054;-64
2021/09/26 06:51:22;;;;;;;7.60;5.13;;;;;;;;;;5065715;28;20027;-64
2021/09/26 06:53:48;;;;;;;9.63;5.37;;;;;;;;;;5063905;28;20342;-63
2021/09/26 06:56:13;;;;;;;13.13;5.55;;;;;;;;;;5049113;28;20045;-64
2021/09/26 06:58:38;;;;;;;10.13;5.90;;;;;;;;;;5059424;28;20060;-65
2021/09/26 07:01:04;;;;;;;6.35;3.50;;;;;;;;;;5068879;28;20035;-65
2021/09/26 07:03:29;;;;;;;11.23;5.03;;;;;;;;;;5068043;28;20466;-63
2021/09/26 07:05:54;;;;;;;12.88;6.43;;;;;;;;;;5068726;28;20400;-63
2021/09/26 07:08:19;;;;;;;9.23;5.70;;;;;;;;;;5068559;28;20067;-66
2021/09/26 07:10:44;;;;;;;7.38;3.83;;;;;;;;;;5069150;28;20265;-63
2021/09/26 07:13:10;;;;;;;13.30;6.87;;;;;;;;;;5064954;28;20024;-64
2021/09/26 07:15:35;;;;;;;10.47;6.60;;;;;;;;;;5063000;28;20259;-64
2021/09/26 07:18:00;;;;;;;10.90;5.82;;;;;;;;;;5068238;28;20365;-63
2021/09/26 07:20:28;;;;;;;11.10;6.90;;;;;;;;;;5068600;28;20020;-65
2021/09/26 07:23:01;;;;;;;8.93;5.30;;;;;;;;;;5067848;28;20035;-65
2021/09/26 07:25:27;;;;;;;11.10;6.63;;;;;;;;;;5068438;28;20506;-64
2021/09/26 07:27:52;;;;;;;14.38;5.22;;;;;;;;;;5068555;28;20528;-64
2021/09/26 07:30:18;;;;;;;11.30;6.33;;;;;;;;;;5068786;28;20103;-64
2021/09/26 07:32:43;;;;;;;6.18;3.40;;;;;;;;;;5064048;28;20271;-64
2021/09/26 07:35:08;;;;;;;10.50;5.82;;;;;;;;;;5057599;28;20136;-64
2021/09/26 07:37:34;;;;;;;9.82;6.28;;;;;;;;;;5057404;28;20028;-65
2021/09/26 07:39:59;;;;;;;15.67;6.93;;;;;;;;;;5068288;28;20029;-65
2021/09/26 07:42:24;;;;;;;10.37;6.30;;;;;;;;;;5067644;28;20262;-64
2021/09/26 07:44:49;;;;;;;14.07;6.07;;;;;;;;;;5068062;28;20274;-64
2021/09/26 07:47:14;;;;;;;11.40;5.93;;;;;;;;;;5067902;28;20024;-64
2021/09/26 07:49:40;;;;;;;7.70;5.03;;;;;;;;;;5067980;28;20320;-65
2021/09/26 07:52:05;;;;;;;7.85;5.57;;;;;;;;;;5059254;28;20480;-66
2021/09/26 07:54:31;;;;;;;8.52;5.22;;;;;;;;;;5056747;28;20098;-64
2021/09/26 07:56:57;;;;;;;8.55;5.10;;;;;;;;;;5069622;28;20021;-64
2021/09/26 07:59:22;;;;;;;12.57;6.88;;;;;;;;;;5060075;28;20198;-66
2021/09/26 08:01:48;;;;;;;8.27;6.00;;;;;;;;;;5068132;28;20020;-66
2021/09/26 08:04:13;;;;;;;8.77;5.53;;;;;;;;;;5069417;28;20078;-65
2021/09/26 08:06:38;;;;;;;7.97;5.87;;;;;;;;;;5070053;28;20036;-64
2021/09/26 08:09:03;;;;;;;7.97;5.63;;;;;;;;;;5065323;28;20302;-64
2021/09/26 08:11:29;;;;;;;10.18;5.05;;;;;;;;;;5068543;28;20266;-66
2021/09/26 08:13:54;;;;;;;10.93;5.33;;;;;;;;;;5069595;28;20099;-65
2021/09/26 08:16:19;;;;;;;11.85;6.18;;;;;;;;;;5069891;28;20370;-64
2021/09/26 08:18:44;;;;;;;9.27;4.43;;;;;;;;;;5069573;28;20070;-65
2021/09/26 08:21:09;;;;;;;8.77;5.37;;;;;;;;;;5066988;28;20074;-64
2021/09/26 08:23:35;;;;;;;14.13;5.33;;;;;;;;;;5065983;28;20017;-64
2021/09/26 08:26:01;;;;;;;7.30;3.13;;;;;;;;;;5068390;28;20267;-64
2021/09/26 08:28:26;;;;;;;11.20;5.45;;;;;;;;;;5069977;28;20028;-66
2021/09/26 08:30:51;;;;;;;10.70;5.63;;;;;;;;;;5068827;28;20515;-64
2021/09/26 08:33:17;;;;;;;11.65;5.50;;;;;;;;;;5069381;28;20290;-65
2021/09/26 08:35:42;;;;;;;9.83;5.67;;;;;;;;;;5069494;28;20107;-64
2021/09/26 08:38:07;;;;;;;15.85;5.47;;;;;;;;;;5069047;28;20353;-65
2021/09/26 08:40:33;;;;;;;11.45;4.68;;;;;;;;;;5065592;28;20021;-65
2021/09/26 08:42:58;;;;;;;11.05;5.03;;;;;;;;;;5061969;28;20487;-65
2021/09/26 08:45:24;;;;;;;12.13;5.28;;;;;;;;;;5065360;28;20024;-65
2021/09/26 08:47:49;;;;;;;9.38;5.30;;;;;;;;;;5047601;28;20024;-64
2021/09/26 08:50:16;;;;;;;11.75;5.55;;;;;;;;;;5060110;28;20028;-66
2021/09/26 08:52:41;;;;;;;6.40;4.68;;;;;;;;;;5065106;28;21759;-64
2021/09/26 08:55:07;;;;;;;7.70;5.10;;;;;;;;;;5054962;28;20028;-66
2021/09/26 08:57:32;;;;;;;10.35;5.00;;;;;;;;;;5053463;28;20039;-64
2021/09/26 08:59:57;;;;;;;9.53;4.27;;;;;;;;;;5069725;28;20028;-66
2021/09/26 09:02:23;;;;;;;8.38;4.90;;;;;;;;;;5068978;28;20266;-65
2021/09/26 09:04:48;;;;;;;7.90;5.18;;;;;;;;;;5069881;28;20056;-65
2021/09/26 09:07:13;;;;;;;8.82;5.82;;;;;;;;;;5069462;28;20487;-65
2021/09/26 09:09:49;;;;;;;11.30;5.53;;;;;;;;;;5069649;28;20103;-65
2021/09/26 09:12:15;;;;;;;7.80;4.07;;;;;;;;;;5070789;28;20020;-65
2021/09/26 09:14:52;;;;;;;16.05;4.72;;;;;;;;;;5073371;28;20027;-64
2021/09/26 09:17:29;;;;;;;11.15;5.15;;;;;;;;;;5073404;28;20028;-64
2021/09/26 09:20:11;;;;;;;15.77;6.82;;;;;;;;;;5053089;28;20021;-66
2021/09/26 09:22:36;;;;;;;15.18;5.65;;;;;;;;;;5068952;28;20508;-65
2021/09/26 09:25:01;;;;;;;8.60;4.93;;;;;;;;;;5072823;28;20035;-65
2021/09/26 09:27:27;;;;;;;15.13;5.30;;;;;;;;;;5072769;28;20036;-65
2021/09/26 09:29:52;;;;;;;13.43;5.43;;;;;;;;;;5073101;28;20262;-65
2021/09/26 09:32:18;;;;;;;6.10;3.80;;;;;;;;;;5072207;28;20021;-66
2021/09/26 09:34:44;;;;;;;7.90;4.15;;;;;;;;;;5072819;28;20750;-66
2021/09/26 09:37:14;;;;;;;11.98;4.30;;;;;;;;;;5072539;28;20017;-67
2021/09/26 09:39:40;;;;;;;8.07;4.47;;;;;;;;;;5072561;28;20090;-66
2021/09/26 09:42:21;;;;;;;7.22;3.78;;;;;;;;;;5072293;28;20472;-64
2021/09/26 09:44:46;;;;;;;8.10;3.92;;;;;;;;;;5072296;28;20024;-65
2021/09/26 09:47:12;;;;;;;7.35;4.85;;;;;;;;;;5072143;28;20017;-63
2021/09/26 09:49:51;;;;;;;10.18;4.63;;;;;;;;;;5072367;28;20016;-64
2021/09/26 09:52:16;;;;;;;8.13;4.88;;;;;;;;;;5071257;28;20021;-63
2021/09/26 09:54:41;;;;;;;9.43;5.00;;;;;;;;;;5070366;28;20021;-64
2021/09/26 09:57:10;;;;;;;8.43;5.03;;;;;;;;;;5072247;28;20070;-64
2021/09/26 09:59:36;;;;;;;9.57;4.65;;;;;;;;;;5072376;28;20107;-64
2021/09/26 10:02:02;;;;;;;8.02;3.83;;;;;;;;;;5072208;28;20104;-65
2021/09/26 10:04:37;;;;;;;8.02;4.70;;;;;;;;;;5072185;28;20369;-64
2021/09/26 10:07:16;;;;;;;4.85;2.95;;;;;;;;;;5071807;28;20021;-65
2021/09/26 10:09:41;;;;;;;7.80;4.72;;;;;;;;;;5072442;28;20442;-66
2021/09/26 10:12:08;;;;;;;3.70;3.15;;;;;;;;;;5071647;28;20103;-66
2021/09/26 10:14:35;;;;;;;12.80;4.68;;;;;;;;;;5072290;28;20025;-66
2021/09/26 10:17:02;;;;;;;5.18;3.33;;;;;;;;;;5072104;28;20044;-66
2021/09/26 10:19:28;;;;;;;7.18;3.83;;;;;;;;;;5071969;28;20044;-67
2021/09/26 10:21:54;;;;;;;7.13;4.90;;;;;;;;;;5072014;28;20493;-66
2021/09/26 10:24:20;;;;;;;8.85;4.65;;;;;;;;;;5070606;28;20032;-66
2021/09/26 10:26:46;;;;;;;14.10;5.10;;;;;;;;;;5072208;28;20020;-66
2021/09/26 10:29:11;;;;;;;5.15;2.47;;;;;;;;;;5072058;28;20024;-66
2021/09/26 10:31:37;;;;;;;7.68;3.33;;;;;;;;;;5072054;28;20052;-68
2021/09/26 10:34:04;;;;;;;8.77;4.13;;;;;;;;;;5071030;28;20061;-66
2021/09/26 10:36:30;;;;;;;8.15;4.70;;;;;;;;;;5071739;28;20013;-66
2021/09/26 10:38:55;;;;;;;7.22;2.92;;;;;;;;;;5071687;28;20042;-66
2021/09/26 10:41:21;;;;;;;5.53;3.22;;;;;;;;;;5068936;28;20032;-66
2021/09/26 10:43:47;;;;;;;9.98;4.05;;;;;;;;;;5069439;28;20417;-66
2021/09/26 10:46:15;;;;;;;6.88;4.07;;;;;;;;;;5062189;28;20020;-66
2021/09/26 10:48:56;;;;;;;7.72;4.20;;;;;;;;;;5054420;28;20017;-66
2021/09/26 10:51:38;;;;;;;5.18;2.97;;;;;;;;;;5071030;28;20032;-66
2021/09/26 10:54:22;;;;;;;10.05;3.80;;;;;;;;;;5070989;28;20090;-67
2021/09/26 10:56:48;;;;;;;8.07;3.80;;;;;;;;;;5070850;28;20509;-68
2021/09/26 10:59:13;;;;;;;6.03;3.83;;;;;;;;;;5070892;28;20028;-66
2021/09/26 11:01:38;;;;;;;8.60;3.73;;;;;;;;;;5071072;28;20031;-66
2021/09/26 11:04:04;;;;;;;8.38;3.42;;;;;;;;;;5070653;28;20336;-66
2021/09/26 11:06:29;;;;;;;9.47;3.23;;;;;;;;;;5070771;28;20056;-66
2021/09/26 11:08:58;;;;;;;8.13;2.63;;;;;;;;;;5070714;28;20271;-67
2021/09/26 11:11:31;;;;;;;7.90;2.90;;;;;;;;;;5071087;28;20353;-67
2021/09/26 11:13:57;;;;;;;7.70;2.20;;;;;;;;;;5070320;28;20038;-66
2021/09/26 11:16:22;;;;;;;7.65;2.45;;;;;;;;;;5070210;28;20107;-67
2021/09/26 11:18:47;;;;;;;5.40;2.50;;;;;;;;;;5070997;28;20063;-67
2021/09/26 11:21:31;;;;;;;4.87;2.57;;;;;;;;;;5070918;28;20658;-67
2021/09/26 11:24:00;;;;;;;6.13;2.50;;;;;;;;;;5070057;28;20298;-66
2021/09/26 11:26:25;;;;;;;9.48;2.80;;;;;;;;;;5071008;28;20033;-67
2021/09/26 11:28:58;;;;;;;7.83;2.33;;;;;;;;;;5070156;28;20020;-66
2021/09/26 11:31:53;;;;;;;8.32;2.35;;;;;;;;;;5070932;28;20262;-67
2021/09/26 11:34:37;;;;;;;9.30;2.53;;;;;;;;;;5045775;28;20032;-67
2021/09/26 11:37:03;;;;;;;9.07;2.85;;;;;;;;;;5070371;28;20024;-65
2021/09/26 11:39:29;;;;;;;8.43;2.33;;;;;;;;;;5069236;28;20025;-66
2021/09/26 11:41:54;;;;;;;3.83;1.98;;;;;;;;;;5069226;28;20024;-67
2021/09/26 11:44:20;;;;;;;14.93;3.40;;;;;;;;;;5069746;28;20119;-66
2021/09/26 11:46:49;;;;;;;6.88;2.58;;;;;;;;;;5070348;28;20025;-65
2021/09/26 11:49:14;;;;;;;7.63;2.50;;;;;;;;;;5070016;28;20023;-66
2021/09/26 11:51:39;;;;;;;12.90;3.38;;;;;;;;;;5070531;28;20029;-66
2021/09/26 11:54:05;;;;;;;7.20;3.25;;;;;;;;;;5065222;28;20051;-66
2021/09/26 11:56:32;;;;;;;9.57;3.28;;;;;;;;;;5068901;28;20023;-65
2021/09/26 11:59:02;;;;;;;13.18;3.65;;;;;;;;;;5065826;28;20100;-67
2021/09/26 12:01:28;;;;;;;4.00;2.28;;;;;;;;;;5066839;28;20385;-66
2021/09/26 12:04:05;;;;;;;7.93;3.22;;;;;;;;;;5059687;28;20543;-66
2021/09/26 12:06:30;;;;;;;9.52;3.22;;;;;;;;;;5060500;28;20496;-67
2021/09/26 12:08:55;;;;;;;8.13;2.47;;;;;;;;;;5063852;28;20016;-66
2021/09/26 12:11:21;;;;;;;9.53;2.90;;;;;;;;;;5064659;28;20259;-67
2021/09/26 12:13:56;;;;;;;10.27;3.65;;;;;;;;;;5069584;28;20263;-67
2021/09/26 12:16:22;;;;;;;6.47;2.42;;;;;;;;;;5069779;28;20024;-66
2021/09/26 12:18:54;;;;;;;5.57;2.53;;;;;;;;;;5069968;28;20024;-67
2021/09/26 12:21:23;;;;;;;8.93;3.22;;;;;;;;;;5066895;28;20146;-66
2021/09/26 12:23:55;;;;;;;7.03;2.38;;;;;;;;;;5063055;28;20021;-67
2021/09/26 12:26:22;;;;;;;5.60;2.00;;;;;;;;;;5049950;28;20017;-66
2021/09/26 12:28:58;;;;;;;5.00;1.92;;;;;;;;;;5063912;28;20130;-67
2021/09/26 12:31:26;;;;;;;9.90;2.85;;;;;;;;;;5066584;28;20020;-67
2021/09/26 12:33:54;;;;;;;7.35;2.65;;;;;;;;;;5058795;28;20021;-67
2021/09/26 12:36:20;;;;;;;9.65;2.90;;;;;;;;;;5059936;28;20019;-67
2021/09/26 12:38:45;;;;;;;5.60;2.60;;;;;;;;;;5060214;28;20087;-67
2021/09/26 12:41:12;;;;;;;10.60;4.07;;;;;;;;;;5062623;28;20497;-65
2021/09/26 12:43:51;;;;;;;5.22;2.00;;;;;;;;;;5067785;28;20033;-67
2021/09/26 12:46:18;;;;;;;7.30;2.80;;;;;;;;;;5069194;28;20028;-67
2021/09/26 12:48:45;;;;;;;11.23;2.67;;;;;;;;;;5066987;28;20334;-68
2021/09/26 12:51:12;;;;;;;6.68;2.70;;;;;;;;;;5063585;28;20085;-67
2021/09/26 12:53:43;;;;;;;7.05;2.38;;;;;;;;;;5067975;28;20016;-67
2021/09/26 12:56:09;;;;;;;10.00;3.13;;;;;;;;;;5060148;28;20067;-67
2021/09/26 12:58:39;;;;;;;5.75;2.15;;;;;;;;;;5066807;28;20028;-67
2021/09/26 13:01:10;;;;;;;10.73;2.83;;;;;;;;;;5066719;28;20083;-66
2021/09/26 13:03:43;;;;;;;5.25;2.42;;;;;;;;;;5064224;28;20492;-67
2021/09/26 13:06:08;;;;;;;4.45;2.20;;;;;;;;;;5059043;28;20231;-67
2021/09/26 13:08:37;;;;;;;7.20;2.57;;;;;;;;;;5061942;28;20374;-68
2021/09/26 13:11:26;;;;;;;8.25;2.33;;;;;;;;;;5064592;28;20274;-67
2021/09/26 13:14:06;;;;;;;8.00;2.65;;;;;;;;;;5062587;28;20108;-66
2021/09/26 13:16:33;;;;;;;11.57;2.83;;;;;;;;;;5070175;28;20162;-65
2021/09/26 13:19:18;;;;;;;6.60;2.40;;;;;;;;;;5072437;28;20100;-67
2021/09/26 13:21:57;;;;;;;8.70;2.60;;;;;;;;;;5065977;28;20142;-67
2021/09/26 13:24:25;;;;;;;7.43;2.30;;;;;;;;;;5063538;28;20099;-67
2021/09/26 13:26:50;;;;;;;3.53;1.92;;;;;;;;;;5058873;28;20017;-67
2021/09/26 13:29:22;;;;;;;7.32;2.47;;;;;;;;;;5064735;28;20032;-66
2021/09/26 13:31:53;;;;;;;2.60;1.35;;;;;;;;;;5072535;28;20016;-67
2021/09/26 13:34:29;;;;;;;6.88;2.92;;;;;;;;;;5067513;28;20013;-67
2021/09/26 13:36:58;;;;;;;9.15;2.83;;;;;;;;;;5060253;28;20511;-67
2021/09/26 13:39:32;;;;;;;10.02;2.90;;;;;;;;;;5064044;28;20484;-68
2021/09/26 13:42:03;;;;;;;8.13;3.38;;;;;;;;;;5062282;28;20032;-66
2021/09/26 13:44:28;;;;;;;10.07;3.67;;;;;;;;;;5067716;28;20086;-67
2021/09/26 13:46:55;;;;;;;4.90;2.60;;;;;;;;;;5065907;28;20485;-66
2021/09/26 13:49:20;;;;;;;7.72;2.55;;;;;;;;;;5061022;28;20021;-66
2021/09/26 13:51:47;;;;;;;9.70;3.42;;;;;;;;;;5059920;28;20717;-66
2021/09/26 13:54:13;;;;;;;5.97;2.65;;;;;;;;;;5061534;28;20133;-65
2021/09/26 13:56:38;;;;;;;6.40;2.55;;;;;;;;;;5062056;28;20381;-67
2021/09/26 13:59:04;;;;;;;9.27;2.90;;;;;;;;;;5057330;28;20020;-67
2021/09/26 14:01:29;;;;;;;9.40;3.38;;;;;;;;;;5061652;28;20098;-67
2021/09/26 14:03:55;;;;;;;7.38;3.55;;;;;;;;;;5063837;28;20448;-67
2021/09/26 14:06:21;;;;;;;5.85;3.55;;;;;;;;;;5061185;28;20040;-68
2021/09/26 14:08:46;;;;;;;10.07;5.28;;;;;;;;;;5062290;28;20097;-67
2021/09/26 14:11:11;;;;;;;8.37;3.43;;;;;;;;;;5059629;28;20017;-65
2021/09/26 14:13:37;;;;;;;8.05;3.58;;;;;;;;;;5065239;28;20255;-66
2021/09/26 14:16:03;;;;;;;11.32;4.07;;;;;;;;;;5070876;28;20481;-67
2021/09/26 14:18:29;;;;;;;10.80;4.00;;;;;;;;;;5069176;28;20060;-66
2021/09/26 14:20:55;;;;;;;8.07;3.67;;;;;;;;;;5064637;28;20097;-65
2021/09/26 14:23:20;;;;;;;6.78;3.00;;;;;;;;;;5060676;28;20119;-65
2021/09/26 14:25:45;;;;;;;8.25;3.58;;;;;;;;;;5071528;28;20028;-65
2021/09/26 14:28:11;;;;;;;12.30;3.20;;;;;;;;;;5071487;28;20052;-65
2021/09/26 14:30:36;;;;;;;11.73;4.00;;;;;;;;;;5071394;28;20346;-64
2021/09/26 14:33:02;;;;;;;5.85;3.15;;;;;;;;;;5070855;28;20020;-65
2021/09/26 14:35:29;;;;;;;8.52;3.42;;;;;;;;;;5069437;28;20139;-65
2021/09/26 14:37:55;;;;;;;7.55;3.65;;;;;;;;;;5066400;28;20012;-65